Česky Dansk Deutsch English Español Suomi Français Magyar Italiano Nederlands norsk Polski Português svenska Türkçe

 

Het Weer

Hessen (Duitsland)

18:50, 18 augustus 2016 (GMT)

NWNNE
WE
SWSSE
Home            
Hessen Mendig Koeln / Bonn Wiesbaden Frankfurt / M-Flughafen Hanau Buechel Fritzlar Dortmund / Wickede Bad Kreuznach Mebstetten / Albstadt Noervenich Pferdsfeld Hahn Paderborn / Lippstadt Essen Duesseldorf Kassel / Calden Idar-Oberstein Monchengladbach Spangdahlem Coleman Mannheim Aachen / Merzbruck

Om een weerknop op uw website of weblog te plaatsen, copieer onderstaande code en plak die in uw pagina. In het eerste vakje staat HTML-code, in het tweede vakje UBB-code.


Add to Google

Details

Wind speed:2 bf, 6 kn, 3.1 m/s, 6.9 miles/h, 11.1 km/h
Wind direction:WSW, 240°
Visibility:Greater than 10000 m, 10 km, 32800 ft, 6.2 miles
Clouds:CAVOC
Temperature:18°C, 64°F
Dew-point:13°C, 55°F
Atmospheric pressure:1011 hPa, 758.3 mmHg, 29.85 inHg, 0.998 atm
Relative humidity:72.6 %
METAR:EDGS 181850Z 24006KT CAVOK 18/13 Q1011

Snelkoppelingen

Actuele weersinformatie van de hele wereld. Voeg locaties toe met het plus (+) symbool. Deze snelkoppelingen kunnen worden toegevoegd aan Google.

Lid van de Technetium groep

website free tracking
StatCounter NetStat W3C Validator

21-05-2022 07:35:23
astro.technetium.be money.technetium.be phote.technetium.be tafeltennistafel.technetium.be www.ligfiets.net